Time;durP1;ratioP1;P1;durP2;ratioP2;P2;SDS_P1;SDS_P2;PMS_P1;PMS_P2;Temp;Humidity;BMP_temperature;BMP_pressure;BME280_temperature;BME280_humidity;BME280_pressure;Samples;Min_cycle;Max_cycle;Signal;HPM_P1;HPM_P2
2022/05/29 00:02:11;;;;;;;0.10;0.10;;;;;;;;;;6152219;23;20604;-95
2022/05/29 00:04:41;;;;;;;0.10;0.10;;;;;;;;;;6138987;23;20044;-96
2022/05/29 00:07:09;;;;;;;0.10;0.10;;;;;;;;;;6198032;22;20019;-92
2022/05/29 00:14:50;;;;;;;0.10;0.10;;;;;;;;;;6275260;22;20239;-93
2022/05/29 00:17:16;;;;;;;1.27;0.55;;;;;;;;;;6229449;22;20011;-95
2022/05/29 00:19:42;;;;;;;0.10;0.10;;;;;;;;;;6229651;22;20086;-95
2022/05/29 00:22:10;;;;;;;0.10;0.10;;;;;;;;;;6238607;22;20019;-94
2022/05/29 00:24:36;;;;;;;0.20;0.20;;;;;;;;;;6198786;22;20341;-94
2022/05/29 00:27:02;;;;;;;0.10;0.10;;;;;;;;;;6222309;22;20051;-93
2022/05/29 00:29:28;;;;;;;0.20;0.20;;;;;;;;;;6218827;23;20426;-92
2022/05/29 00:31:54;;;;;;;0.10;0.10;;;;;;;;;;6246593;22;20119;-91
2022/05/29 00:34:20;;;;;;;0.10;0.10;;;;;;;;;;6220558;23;20016;-92
2022/05/29 00:36:46;;;;;;;0.10;0.10;;;;;;;;;;6245270;22;20440;-91
2022/05/29 00:39:13;;;;;;;0.10;0.10;;;;;;;;;;6213228;22;20047;-90
2022/05/29 00:41:39;;;;;;;0.10;0.10;;;;;;;;;;6219852;23;20019;-90
2022/05/29 00:44:14;;;;;;;0.10;0.10;;;;;;;;;;6248447;22;20043;-90
2022/05/29 00:46:43;;;;;;;0.10;0.10;;;;;;;;;;6249893;22;20344;-90
2022/05/29 00:49:10;;;;;;;0.10;0.10;;;;;;;;;;6225034;22;20439;-92
2022/05/29 00:51:39;;;;;;;0.10;0.10;;;;;;;;;;6220142;23;20460;-91
2022/05/29 00:54:08;;;;;;;0.10;0.10;;;;;;;;;;6249203;22;20011;-93
2022/05/29 00:56:35;;;;;;;0.10;0.10;;;;;;;;;;6226299;22;20015;-94
2022/05/29 00:59:03;;;;;;;0.10;0.10;;;;;;;;;;6223081;22;20012;-93
2022/05/29 01:01:31;;;;;;;0.10;0.10;;;;;;;;;;6220921;23;20394;-94
2022/05/29 01:03:59;;;;;;;0.30;0.30;;;;;;;;;;6247529;22;20012;-94
2022/05/29 01:06:25;;;;;;;0.10;0.10;;;;;;;;;;6220902;23;20026;-94
2022/05/29 01:08:51;;;;;;;0.10;0.10;;;;;;;;;;6246900;22;20134;-94
2022/05/29 01:11:28;;;;;;;0.10;0.10;;;;;;;;;;6225338;22;20329;-93
2022/05/29 01:14:06;;;;;;;0.10;0.10;;;;;;;;;;6225785;22;20016;-94
2022/05/29 01:16:35;;;;;;;0.10;0.10;;;;;;;;;;6250439;22;20349;-91
2022/05/29 01:19:20;;;;;;;0.10;0.10;;;;;;;;;;6250142;22;20090;-91
2022/05/29 01:22:04;;;;;;;0.10;0.10;;;;;;;;;;6250051;22;20445;-91
2022/05/29 01:24:49;;;;;;;0.10;0.10;;;;;;;;;;6250177;22;20329;-91
2022/05/29 01:27:28;;;;;;;0.10;0.10;;;;;;;;;;6250009;22;20015;-92
2022/05/29 01:30:12;;;;;;;0.10;0.10;;;;;;;;;;6249953;22;20039;-92
2022/05/29 01:32:43;;;;;;;0.10;0.10;;;;;;;;;;6219479;23;20009;-91
2022/05/29 01:35:11;;;;;;;0.10;0.10;;;;;;;;;;6249261;22;20030;-88
2022/05/29 01:37:38;;;;;;;0.28;0.20;;;;;;;;;;6225142;22;20011;-94
2022/05/29 01:40:26;;;;;;;0.10;0.10;;;;;;;;;;6223478;22;20015;-93
2022/05/29 01:42:58;;;;;;;0.10;0.10;;;;;;;;;;6221219;22;20016;-92
2022/05/29 01:45:56;;;;;;;0.20;0.20;;;;;;;;;;6225114;22;20008;-93
2022/05/29 01:48:28;;;;;;;0.10;0.10;;;;;;;;;;6224646;22;20008;-92
2022/05/29 01:51:03;;;;;;;0.10;0.10;;;;;;;;;;6275380;22;20508;-92
2022/05/29 01:53:32;;;;;;;0.10;0.10;;;;;;;;;;6220295;23;20069;-93
2022/05/29 01:55:59;;;;;;;0.10;0.10;;;;;;;;;;6247789;22;20034;-94
2022/05/29 01:58:27;;;;;;;0.10;0.10;;;;;;;;;;6220482;23;20016;-95
2022/05/29 02:01:02;;;;;;;0.10;0.10;;;;;;;;;;6246817;22;20012;-93
2022/05/29 02:03:31;;;;;;;0.10;0.10;;;;;;;;;;6227033;22;20012;-93
2022/05/29 02:06:04;;;;;;;0.10;0.10;;;;;;;;;;6222253;22;20087;-92
2022/05/29 02:08:46;;;;;;;0.10;0.10;;;;;;;;;;6219553;23;20095;-92
2022/05/29 02:11:12;;;;;;;;;;;;;;;;;;6237747;22;20015;-92
2022/05/29 02:13:43;;;;;;;0.10;0.10;;;;;;;;;;6224090;22;19911;-90
2022/05/29 02:16:13;;;;;;;0.10;0.10;;;;;;;;;;6218267;23;20098;-90
2022/05/29 02:18:48;;;;;;;0.10;0.10;;;;;;;;;;6190031;23;20027;-94
2022/05/29 02:21:32;;;;;;;0.20;0.20;;;;;;;;;;6213762;23;20087;-91
2022/05/29 02:23:59;;;;;;;0.10;0.10;;;;;;;;;;6191384;23;20008;-93
2022/05/29 02:26:31;;;;;;;0.20;0.20;;;;;;;;;;6194644;23;20012;-94
2022/05/29 02:28:59;;;;;;;0.10;0.10;;;;;;;;;;6194972;23;20460;-94
2022/05/29 02:31:29;;;;;;;0.10;0.10;;;;;;;;;;6195213;23;20054;-90
2022/05/29 02:33:58;;;;;;;0.10;0.10;;;;;;;;;;6193760;23;20057;-92
2022/05/29 02:36:24;;;;;;;0.10;0.10;;;;;;;;;;6218760;23;20019;-93
2022/05/29 02:39:02;;;;;;;0.10;0.10;;;;;;;;;;6194193;23;20034;-91
2022/05/29 02:41:32;;;;;;;0.10;0.10;;;;;;;;;;6193843;23;20020;-91
2022/05/29 02:44:01;;;;;;;0.10;0.10;;;;;;;;;;6193683;23;20009;-90
2022/05/29 02:46:27;;;;;;;0.10;0.10;;;;;;;;;;6193938;23;20031;-90
2022/05/29 02:48:59;;;;;;;0.10;0.10;;;;;;;;;;6194034;23;20479;-90
2022/05/29 02:51:39;;;;;;;0.10;0.10;;;;;;;;;;6218372;23;20469;-90
2022/05/29 02:54:05;;;;;;;0.10;0.10;;;;;;;;;;6193162;23;20016;-90
2022/05/29 02:56:32;;;;;;;0.10;0.10;;;;;;;;;;6193254;23;20019;-90
2022/05/29 02:58:58;;;;;;;0.10;0.10;;;;;;;;;;6193701;23;20387;-90
2022/05/29 03:01:24;;;;;;;0.10;0.10;;;;;;;;;;6193525;23;20015;-91
2022/05/29 03:04:10;;;;;;;0.10;0.10;;;;;;;;;;6193485;23;20012;-92
2022/05/29 03:06:41;;;;;;;0.10;0.10;;;;;;;;;;6193029;23;20066;-92
2022/05/29 03:09:10;;;;;;;0.10;0.10;;;;;;;;;;6193568;23;20062;-90
2022/05/29 03:11:40;;;;;;;0.10;0.10;;;;;;;;;;6243187;23;20059;-89
2022/05/29 03:14:15;;;;;;;0.10;0.10;;;;;;;;;;6193617;22;20023;-90
2022/05/29 03:16:43;;;;;;;0.10;0.10;;;;;;;;;;6248269;22;20022;-90
2022/05/29 03:19:16;;;;;;;0.10;0.10;;;;;;;;;;6223219;22;20026;-90
2022/05/29 03:21:43;;;;;;;;;;;;;;;;;;6223899;22;20471;-93
2022/05/29 03:24:15;;;;;;;0.10;0.10;;;;;;;;;;6223584;22;19914;-94
2022/05/29 03:26:43;;;;;;;0.10;0.10;;;;;;;;;;6248917;22;20019;-92
2022/05/29 03:29:10;;;;;;;0.10;0.10;;;;;;;;;;6223795;22;20008;-92
2022/05/29 03:31:36;;;;;;;0.10;0.10;;;;;;;;;;6223714;22;20015;-91
2022/05/29 03:34:02;;;;;;;0.10;0.10;;;;;;;;;;6223342;22;20011;-91
2022/05/29 03:36:31;;;;;;;0.10;0.10;;;;;;;;;;6223762;22;20190;-92
2022/05/29 03:38:57;;;;;;;0.10;0.10;;;;;;;;;;6224212;22;20016;-92
2022/05/29 03:41:29;;;;;;;0.10;0.10;;;;;;;;;;6223351;22;20023;-92
2022/05/29 03:43:55;;;;;;;0.13;0.13;;;;;;;;;;6249026;22;20205;-92
2022/05/29 03:46:21;;;;;;;0.10;0.10;;;;;;;;;;6224116;22;20225;-93
2022/05/29 03:48:47;;;;;;;0.10;0.10;;;;;;;;;;6198106;22;20091;-92
2022/05/29 03:51:14;;;;;;;0.10;0.10;;;;;;;;;;6224076;22;20012;-91
2022/05/29 03:53:40;;;;;;;0.10;0.10;;;;;;;;;;6224099;22;20134;-92
2022/05/29 03:56:06;;;;;;;0.10;0.10;;;;;;;;;;6224278;22;20047;-92
2022/05/29 03:58:35;;;;;;;0.10;0.10;;;;;;;;;;6224574;22;20054;-92
2022/05/29 04:01:01;;;;;;;0.20;0.20;;;;;;;;;;6245046;22;20085;-92
2022/05/29 04:03:27;;;;;;;0.10;0.10;;;;;;;;;;6245522;22;20059;-91
2022/05/29 04:05:54;;;;;;;0.10;0.10;;;;;;;;;;6259444;22;20492;-92
2022/05/29 04:13:49;;;;;;;0.10;0.10;;;;;;;;;;6252100;22;20097;-91
2022/05/29 04:16:15;;;;;;;0.10;0.10;;;;;;;;;;6221103;23;20095;-91
2022/05/29 04:18:41;;;;;;;0.10;0.10;;;;;;;;;;6181511;23;20473;-91
2022/05/29 04:21:07;;;;;;;0.10;0.10;;;;;;;;;;6217361;23;20094;-90
2022/05/29 04:23:33;;;;;;;0.20;0.20;;;;;;;;;;6188427;23;20047;-91
2022/05/29 04:25:59;;;;;;;0.10;0.10;;;;;;;;;;6190400;23;20048;-91
2022/05/29 04:28:25;;;;;;;0.10;0.10;;;;;;;;;;6187816;23;20446;-90
2022/05/29 04:30:51;;;;;;;0.10;0.10;;;;;;;;;;6188745;23;20016;-90
2022/05/29 04:33:18;;;;;;;0.10;0.10;;;;;;;;;;6187451;23;20019;-90
2022/05/29 04:35:45;;;;;;;0.10;0.10;;;;;;;;;;6187137;23;20016;-90
2022/05/29 04:38:11;;;;;;;0.20;0.20;;;;;;;;;;6217753;23;20463;-90
2022/05/29 04:40:41;;;;;;;0.10;0.10;;;;;;;;;;6187519;23;20013;-89
2022/05/29 04:43:07;;;;;;;0.10;0.10;;;;;;;;;;6192230;23;20074;-92
2022/05/29 04:45:33;;;;;;;0.10;0.10;;;;;;;;;;6188086;23;20009;-90
2022/05/29 04:47:59;;;;;;;0.10;0.10;;;;;;;;;;6190468;23;20083;-92
2022/05/29 04:50:25;;;;;;;0.10;0.10;;;;;;;;;;6188041;23;20008;-93
2022/05/29 04:52:52;;;;;;;0.10;0.10;;;;;;;;;;6189464;23;20019;-92
2022/05/29 04:55:18;;;;;;;0.10;0.10;;;;;;;;;;6187888;23;20044;-93
2022/05/29 04:57:44;;;;;;;0.10;0.10;;;;;;;;;;6187894;23;20338;-93
2022/05/29 05:00:11;;;;;;;0.10;0.10;;;;;;;;;;6193058;23;20047;-93
2022/05/29 05:02:38;;;;;;;0.10;0.10;;;;;;;;;;6193205;23;20062;-94
2022/05/29 05:05:05;;;;;;;0.10;0.10;;;;;;;;;;6193424;23;20009;-94
2022/05/29 05:07:31;;;;;;;0.10;0.10;;;;;;;;;;6193613;23;20144;-93
2022/05/29 05:09:58;;;;;;;0.10;0.10;;;;;;;;;;6193936;23;20190;-94
2022/05/29 05:12:25;;;;;;;0.10;0.10;;;;;;;;;;6193176;23;20012;-94
2022/05/29 05:14:54;;;;;;;0.10;0.10;;;;;;;;;;6203584;22;20475;-94
2022/05/29 05:17:21;;;;;;;0.10;0.10;;;;;;;;;;6224182;22;20034;-96
2022/05/29 05:19:47;;;;;;;0.10;0.10;;;;;;;;;;6225955;22;20047;-93
2022/05/29 05:22:16;;;;;;;0.10;0.10;;;;;;;;;;6225914;22;20426;-94
2022/05/29 05:24:42;;;;;;;5.07;1.05;;;;;;;;;;6250483;22;20011;-95
2022/05/29 05:27:12;;;;;;;0.10;0.10;;;;;;;;;;6226661;22;20479;-95
2022/05/29 05:29:38;;;;;;;0.10;0.10;;;;;;;;;;6200506;22;20014;-92
2022/05/29 05:32:05;;;;;;;0.10;0.10;;;;;;;;;;6225409;22;20411;-91
2022/05/29 05:34:31;;;;;;;0.10;0.10;;;;;;;;;;6224827;22;20030;-92
2022/05/29 05:36:57;;;;;;;0.10;0.10;;;;;;;;;;6224555;22;20019;-92
2022/05/29 05:39:23;;;;;;;0.10;0.10;;;;;;;;;;6224597;22;20018;-91
2022/05/29 05:41:49;;;;;;;0.10;0.10;;;;;;;;;;6224284;22;20012;-91
2022/05/29 05:44:15;;;;;;;0.10;0.10;;;;;;;;;;6249085;22;20040;-91
2022/05/29 05:46:45;;;;;;;0.10;0.10;;;;;;;;;;6224642;22;20044;-90
2022/05/29 05:49:12;;;;;;;0.10;0.10;;;;;;;;;;6224559;22;20355;-91
2022/05/29 05:51:38;;;;;;;0.20;0.20;;;;;;;;;;6224995;22;20058;-90
2022/05/29 05:54:04;;;;;;;0.10;0.10;;;;;;;;;;6224199;22;20011;-91
2022/05/29 05:56:30;;;;;;;0.10;0.10;;;;;;;;;;6224069;22;20325;-91
2022/05/29 05:58:56;;;;;;;0.10;0.10;;;;;;;;;;6224371;22;20023;-93
2022/05/29 06:01:22;;;;;;;0.10;0.10;;;;;;;;;;6224544;22;20016;-93
2022/05/29 06:03:49;;;;;;;0.10;0.10;;;;;;;;;;6224966;22;20008;-92
2022/05/29 06:06:15;;;;;;;0.10;0.10;;;;;;;;;;6224713;22;20043;-92
2022/05/29 06:08:41;;;;;;;0.10;0.10;;;;;;;;;;6224997;22;20014;-92
2022/05/29 06:11:07;;;;;;;0.10;0.10;;;;;;;;;;6224580;22;20464;-93
2022/05/29 06:13:33;;;;;;;0.10;0.10;;;;;;;;;;6224481;22;20015;-91
2022/05/29 06:16:03;;;;;;;0.10;0.10;;;;;;;;;;6223861;22;20024;-91
2022/05/29 06:18:29;;;;;;;0.10;0.10;;;;;;;;;;6223951;22;20042;-90
2022/05/29 06:21:00;;;;;;;1.40;1.30;;;;;;;;;;6223856;22;20015;-91
2022/05/29 06:23:26;;;;;;;0.10;0.10;;;;;;;;;;6222460;22;20019;-90
2022/05/29 06:25:52;;;;;;;0.10;0.10;;;;;;;;;;6223698;22;20004;-90
2022/05/29 06:28:18;;;;;;;0.10;0.10;;;;;;;;;;6248766;22;20049;-90
2022/05/29 06:30:44;;;;;;;0.10;0.10;;;;;;;;;;6223800;22;20012;-93
2022/05/29 06:33:13;;;;;;;0.10;0.10;;;;;;;;;;6224527;22;20016;-93
2022/05/29 06:35:40;;;;;;;0.10;0.10;;;;;;;;;;6224825;22;20019;-93
2022/05/29 06:38:06;;;;;;;0.10;0.10;;;;;;;;;;6224062;22;20090;-92
2022/05/29 06:40:32;;;;;;;0.10;0.10;;;;;;;;;;6223649;22;20023;-92
2022/05/29 06:42:58;;;;;;;0.10;0.10;;;;;;;;;;6223824;22;20007;-92
2022/05/29 06:45:26;;;;;;;0.90;0.57;;;;;;;;;;6223611;22;20338;-94
2022/05/29 06:47:52;;;;;;;0.10;0.10;;;;;;;;;;6225088;22;20034;-93
2022/05/29 06:50:18;;;;;;;0.10;0.10;;;;;;;;;;6224813;22;20012;-92
2022/05/29 06:52:44;;;;;;;0.10;0.10;;;;;;;;;;6225450;22;20333;-90
2022/05/29 06:55:11;;;;;;;0.10;0.10;;;;;;;;;;6223571;22;20012;-90
2022/05/29 06:57:37;;;;;;;0.10;0.10;;;;;;;;;;6223385;22;20007;-87
2022/05/29 07:08:05;;;;;;;0.10;0.10;;;;;;;;;;6223382;22;20380;-91
2022/05/29 07:10:32;;;;;;;0.10;0.10;;;;;;;;;;6223354;22;20008;-87
2022/05/29 07:12:58;;;;;;;0.10;0.10;;;;;;;;;;6222960;22;20015;-89
2022/05/29 07:15:24;;;;;;;0.10;0.10;;;;;;;;;;6248225;22;20016;-89
2022/05/29 07:17:50;;;;;;;0.10;0.10;;;;;;;;;;6223639;22;20019;-92
2022/05/29 07:20:16;;;;;;;0.10;0.10;;;;;;;;;;6223846;22;20529;-93
2022/05/29 07:22:43;;;;;;;0.10;0.10;;;;;;;;;;6229512;22;20019;-93
2022/05/29 07:25:11;;;;;;;0.10;0.10;;;;;;;;;;6225683;22;20011;-94
2022/05/29 07:27:40;;;;;;;0.10;0.10;;;;;;;;;;6248703;22;20103;-91
2022/05/29 07:30:06;;;;;;;0.20;0.20;;;;;;;;;;6223476;22;20039;-91
2022/05/29 07:32:35;;;;;;;0.10;0.10;;;;;;;;;;6249703;22;20031;-91
2022/05/29 07:35:01;;;;;;;0.10;0.10;;;;;;;;;;6223357;22;20007;-92
2022/05/29 07:37:30;;;;;;;0.10;0.10;;;;;;;;;;6226485;22;20007;-95
2022/05/29 07:40:02;;;;;;;0.10;0.10;;;;;;;;;;6226774;22;20012;-95
2022/05/29 07:45:18;;;;;;;0.10;0.10;;;;;;;;;;6228396;22;20020;-93
2022/05/29 07:47:44;;;;;;;0.10;0.10;;;;;;;;;;6224045;22;20018;-92
2022/05/29 07:50:11;;;;;;;0.10;0.10;;;;;;;;;;6223129;22;20054;-91
2022/05/29 07:52:37;;;;;;;0.10;0.10;;;;;;;;;;6223248;22;20061;-92
2022/05/29 07:55:03;;;;;;;0.10;0.10;;;;;;;;;;6223990;22;20015;-94
2022/05/29 07:57:29;;;;;;;0.10;0.10;;;;;;;;;;6223573;22;20548;-92
2022/05/29 07:59:56;;;;;;;0.10;0.10;;;;;;;;;;6223620;22;20018;-94
2022/05/29 08:02:22;;;;;;;0.10;0.10;;;;;;;;;;6223972;22;20066;-92
2022/05/29 08:04:48;;;;;;;0.10;0.10;;;;;;;;;;6223670;22;20008;-93
2022/05/29 08:07:14;;;;;;;0.10;0.10;;;;;;;;;;6224613;22;20018;-92
2022/05/29 08:09:40;;;;;;;0.10;0.10;;;;;;;;;;6224163;22;20008;-93
2022/05/29 08:12:08;;;;;;;0.10;0.10;;;;;;;;;;6224852;22;20047;-94
2022/05/29 08:14:34;;;;;;;0.10;0.10;;;;;;;;;;6233334;22;20016;-92
2022/05/29 08:17:00;;;;;;;0.10;0.10;;;;;;;;;;6242711;22;20031;-92
2022/05/29 08:19:33;;;;;;;0.10;0.10;;;;;;;;;;6238723;22;20184;-94
2022/05/29 08:21:59;;;;;;;1.50;1.40;;;;;;;;;;6236476;22;20020;-94
2022/05/29 08:32:41;;;;;;;0.10;0.10;;;;;;;;;;6255542;22;20048;-94
2022/05/29 08:35:09;;;;;;;0.10;0.10;;;;;;;;;;6248422;22;20016;-93
2022/05/29 08:37:39;;;;;;;0.10;0.10;;;;;;;;;;6224684;22;20095;-93
2022/05/29 08:40:09;;;;;;;0.10;0.10;;;;;;;;;;6248776;22;20008;-93
2022/05/29 08:42:35;;;;;;;0.10;0.10;;;;;;;;;;6222421;22;20345;-93
2022/05/29 08:45:04;;;;;;;0.10;0.10;;;;;;;;;;6223666;22;20011;-93
2022/05/29 08:47:31;;;;;;;0.10;0.10;;;;;;;;;;6252022;22;20011;-93
2022/05/29 08:49:58;;;;;;;0.80;0.13;;;;;;;;;;6225967;22;20091;-94
2022/05/29 08:52:40;;;;;;;0.10;0.10;;;;;;;;;;6227226;22;20012;-96
2022/05/29 08:55:25;;;;;;;0.10;0.10;;;;;;;;;;6227844;22;20018;-96
2022/05/29 08:58:02;;;;;;;0.10;0.10;;;;;;;;;;6250974;22;20022;-96
2022/05/29 09:00:46;;;;;;;0.10;0.10;;;;;;;;;;6225751;22;20015;-95
2022/05/29 09:03:38;;;;;;;0.10;0.10;;;;;;;;;;6251003;22;20043;-95
2022/05/29 09:06:13;;;;;;;0.10;0.10;;;;;;;;;;6222210;22;20015;-95
2022/05/29 09:09:08;;;;;;;0.10;0.10;;;;;;;;;;6230254;22;20097;-96
2022/05/29 09:11:51;;;;;;;0.10;0.10;;;;;;;;;;6249677;22;20011;-92
2022/05/29 09:15:24;;;;;;;0.10;0.10;;;;;;;;;;6253643;22;20317;-96
2022/05/29 09:21:08;;;;;;;0.10;0.10;;;;;;;;;;6244877;22;20024;-95
2022/05/29 09:23:55;;;;;;;0.10;0.10;;;;;;;;;;6219816;23;20016;-94
2022/05/29 09:26:21;;;;;;;0.10;0.10;;;;;;;;;;6218013;23;20012;-96
2022/05/29 09:28:47;;;;;;;0.10;0.10;;;;;;;;;;6199185;23;20064;-92
2022/05/29 09:31:26;;;;;;;0.10;0.10;;;;;;;;;;6198205;23;20095;-94
2022/05/29 09:34:09;;;;;;;0.10;0.10;;;;;;;;;;6220968;23;20016;-96
2022/05/29 09:37:00;;;;;;;0.10;0.10;;;;;;;;;;6220546;23;20023;-96
2022/05/29 09:39:43;;;;;;;0.10;0.10;;;;;;;;;;6246253;23;20127;-92
2022/05/29 09:42:25;;;;;;;;;;;;;;;;;;6196331;23;20012;-91
2022/05/29 09:45:11;;;;;;;0.10;0.10;;;;;;;;;;6221147;23;19969;-94
2022/05/29 09:50:39;;;;;;;0.10;0.10;;;;;;;;;;6248149;23;20016;-90
2022/05/29 09:53:28;;;;;;;0.20;0.20;;;;;;;;;;6247633;22;20012;-96
2022/05/29 09:59:32;;;;;;;0.10;0.10;;;;;;;;;;6145423;23;20055;-96
2022/05/29 10:02:09;;;;;;;0.10;0.10;;;;;;;;;;6186230;23;20062;-95
2022/05/29 10:04:41;;;;;;;0.10;0.10;;;;;;;;;;6201736;23;20299;-96
2022/05/29 10:07:12;;;;;;;0.10;0.10;;;;;;;;;;6199561;23;20012;-93
2022/05/29 10:09:59;;;;;;;0.10;0.10;;;;;;;;;;6200188;23;20088;-96
2022/05/29 10:23:34;;;;;;;0.10;0.10;;;;;;;;;;6262909;22;20027;-96
2022/05/29 10:29:43;;;;;;;0.52;0.30;;;;;;;;;;6280023;22;20050;-95
2022/05/29 10:32:10;;;;;;;0.10;0.10;;;;;;;;;;6224375;22;20015;-92
2022/05/29 10:34:38;;;;;;;0.10;0.10;;;;;;;;;;6198256;22;20050;-93
2022/05/29 10:37:23;;;;;;;0.10;0.10;;;;;;;;;;6224665;22;20008;-93
2022/05/29 10:39:59;;;;;;;0.10;0.10;;;;;;;;;;6223822;22;20015;-94
2022/05/29 10:42:45;;;;;;;0.10;0.10;;;;;;;;;;6201218;22;20019;-92
2022/05/29 10:45:51;;;;;;;;;;;;;;;;;;;;;
2022/05/29 10:49:05;;;;;;;0.97;0.97;;;;;;;;;;6160517;23;20032;-93
2022/05/29 10:51:45;;;;;;;0.10;0.10;;;;;;;;;;6110974;22;20024;-95
2022/05/29 10:54:25;;;;;;;0.10;0.10;;;;;;;;;;6223948;22;20050;-95
2022/05/29 10:57:02;;;;;;;0.10;0.10;;;;;;;;;;6224603;22;20043;-95
2022/05/29 10:59:51;;;;;;;1.13;0.90;;;;;;;;;;6224410;22;20099;-95
2022/05/29 11:03:28;;;;;;;0.10;0.10;;;;;;;;;;6274741;22;20023;-94
2022/05/29 11:06:40;;;;;;;0.10;0.10;;;;;;;;;;6249660;22;20019;-94
2022/05/29 11:09:19;;;;;;;0.10;0.10;;;;;;;;;;6249601;22;20336;-95
2022/05/29 11:11:55;;;;;;;0.10;0.10;;;;;;;;;;6224369;22;20011;-94
2022/05/29 11:14:24;;;;;;;0.10;0.10;;;;;;;;;;6199995;22;20436;-96
2022/05/29 11:16:53;;;;;;;0.10;0.10;;;;;;;;;;6224115;22;20451;-96
2022/05/29 11:19:22;;;;;;;0.15;0.15;;;;;;;;;;6224673;22;20016;-95
2022/05/29 11:21:53;;;;;;;0.10;0.10;;;;;;;;;;6222904;22;20061;-92
2022/05/29 11:24:28;;;;;;;0.10;0.10;;;;;;;;;;6223516;22;20035;-93
2022/05/29 11:27:19;;;;;;;0.10;0.10;;;;;;;;;;6222852;22;20018;-94
2022/05/29 11:29:51;;;;;;;0.10;0.10;;;;;;;;;;6208257;22;20018;-92
2022/05/29 11:32:22;;;;;;;0.10;0.10;;;;;;;;;;6223976;22;20069;-93
2022/05/29 11:35:08;;;;;;;0.10;0.10;;;;;;;;;;6198078;22;20341;-93
2022/05/29 11:37:45;;;;;;;0.10;0.10;;;;;;;;;;6247752;22;20510;-93
2022/05/29 11:40:14;;;;;;;0.10;0.10;;;;;;;;;;6198205;22;20098;-93
2022/05/29 11:42:46;;;;;;;0.13;0.13;;;;;;;;;;6223304;22;20061;-92
2022/05/29 11:51:06;;;;;;;0.10;0.10;;;;;;;;;;6224277;22;20007;-94
2022/05/29 11:51:11;;;;;;;0.10;0.10;;;;;;;;;;6227293;22;20510;-95
2022/05/29 11:56:25;;;;;;;0.10;0.10;;;;;;;;;;6260192;22;20027;-93
2022/05/29 11:59:14;;;;;;;0.10;0.10;;;;;;;;;;6228804;22;20011;-93
2022/05/29 12:01:45;;;;;;;0.10;0.10;;;;;;;;;;6257149;22;20449;-96
2022/05/29 12:04:39;;;;;;;0.17;0.17;;;;;;;;;;6209594;22;20015;-95
2022/05/29 12:24:32;;;;;;;0.10;0.10;;;;;;;;;;6251440;22;20084;-96
2022/05/29 12:45:49;;;;;;;0.10;0.10;;;;;;;;;;6248236;22;20066;-95
2022/05/29 12:48:58;;;;;;;0.10;0.10;;;;;;;;;;6245944;23;20026;-95
2022/05/29 13:08:19;;;;;;;0.10;0.10;;;;;;;;;;6251810;22;20061;-96
2022/05/29 13:43:31;;;;;;;0.30;0.30;;;;;;;;;;6247367;22;20075;-96
2022/05/29 14:03:58;;;;;;;0.10;0.10;;;;;;;;;;6287803;22;20027;-96
2022/05/29 14:06:44;;;;;;;0.10;0.10;;;;;;;;;;6262560;22;20026;-96
2022/05/29 14:09:27;;;;;;;0.10;0.10;;;;;;;;;;6260862;22;20015;-96
2022/05/29 14:17:26;;;;;;;0.10;0.10;;;;;;;;;;6231788;22;19960;-94
2022/05/29 14:59:34;;;;;;;2.50;2.30;;;;;;;;;;6250436;22;20027;-93
2022/05/29 15:02:00;;;;;;;0.10;0.10;;;;;;;;;;6199776;22;20019;-96
2022/05/29 15:26:22;;;;;;;0.20;0.20;;;;;;;;;;6246187;22;20023;-95
2022/05/29 15:34:24;;;;;;;0.20;0.20;;;;;;;;;;6315323;22;20055;-95
2022/05/29 15:37:08;;;;;;;0.10;0.10;;;;;;;;;;6230103;22;20038;-95
2022/05/29 15:39:47;;;;;;;0.10;0.10;;;;;;;;;;6230666;22;20256;-95
2022/05/29 15:42:17;;;;;;;0.10;0.10;;;;;;;;;;6279771;22;20011;-92
2022/05/29 15:44:46;;;;;;;0.10;0.10;;;;;;;;;;6279370;22;20011;-96
2022/05/29 15:47:31;;;;;;;0.10;0.10;;;;;;;;;;6258692;22;20010;-96
2022/05/29 15:50:27;;;;;;;0.10;0.10;;;;;;;;;;6311419;22;20455;-95
2022/05/29 15:53:01;;;;;;;0.10;0.10;;;;;;;;;;6167662;22;20359;-95
2022/05/29 15:56:11;;;;;;;0.10;0.10;;;;;;;;;;6265827;22;20019;-96
2022/05/29 15:58:47;;;;;;;0.10;0.10;;;;;;;;;;6256084;22;20027;-96
2022/05/29 16:01:16;;;;;;;0.10;0.10;;;;;;;;;;6281780;22;20016;-93
2022/05/29 16:03:43;;;;;;;0.10;0.10;;;;;;;;;;6281726;22;20007;-94
2022/05/29 16:48:14;;;;;;;0.10;0.10;;;;;;;;;;6264513;22;20020;-93
2022/05/29 16:50:44;;;;;;;0.10;0.10;;;;;;;;;;6241819;22;20004;-95
2022/05/29 16:53:15;;;;;;;0.10;0.10;;;;;;;;;;6249211;22;20022;-94
2022/05/29 16:56:13;;;;;;;0.10;0.10;;;;;;;;;;6222584;22;20038;-93
2022/05/29 16:59:02;;;;;;;0.10;0.10;;;;;;;;;;6141642;22;20011;-92
2022/05/29 17:01:36;;;;;;;0.10;0.10;;;;;;;;;;6225934;22;20019;-96
2022/05/29 17:04:05;;;;;;;0.10;0.10;;;;;;;;;;6247913;22;20008;-92
2022/05/29 17:06:32;;;;;;;0.40;0.40;;;;;;;;;;6224051;22;20082;-95
2022/05/29 17:09:23;;;;;;;0.10;0.10;;;;;;;;;;6199419;22;20086;-93
2022/05/29 17:11:51;;;;;;;0.10;0.10;;;;;;;;;;6202007;22;20034;-94
2022/05/29 17:14:17;;;;;;;0.10;0.10;;;;;;;;;;6201386;22;20015;-94
2022/05/29 17:16:43;;;;;;;0.10;0.10;;;;;;;;;;6200706;22;20018;-94
2022/05/29 17:19:33;;;;;;;0.10;0.10;;;;;;;;;;6201395;22;20020;-95
2022/05/29 17:22:20;;;;;;;0.10;0.10;;;;;;;;;;6226135;22;20037;-93
2022/05/29 17:25:20;;;;;;;0.10;0.10;;;;;;;;;;6200975;22;20008;-94
2022/05/29 17:28:05;;;;;;;0.10;0.10;;;;;;;;;;6224591;22;20016;-94
2022/05/29 17:30:41;;;;;;;0.10;0.10;;;;;;;;;;6250734;22;20034;-93
2022/05/29 17:33:13;;;;;;;0.10;0.10;;;;;;;;;;6202167;22;20012;-93
2022/05/29 17:36:10;;;;;;;0.10;0.10;;;;;;;;;;6226937;22;20031;-96
2022/05/29 17:38:44;;;;;;;0.10;0.10;;;;;;;;;;6235478;22;20019;-95
2022/05/29 17:41:10;;;;;;;0.20;0.20;;;;;;;;;;6200669;22;20019;-96
2022/05/29 17:43:41;;;;;;;0.10;0.10;;;;;;;;;;6226088;22;20014;-96
2022/05/29 17:49:56;;;;;;;0.10;0.10;;;;;;;;;;6215603;23;20016;-95
2022/05/29 17:52:38;;;;;;;0.10;0.10;;;;;;;;;;6166514;23;20012;-95
2022/05/29 18:02:13;;;;;;;0.20;0.20;;;;;;;;;;6216845;23;20135;-95
2022/05/29 18:04:41;;;;;;;0.10;0.10;;;;;;;;;;6234490;22;20099;-88
2022/05/29 18:07:10;;;;;;;0.10;0.10;;;;;;;;;;6228878;22;20113;-91
2022/05/29 18:09:41;;;;;;;0.10;0.10;;;;;;;;;;6229693;22;20518;-94
2022/05/29 18:12:24;;;;;;;0.10;0.10;;;;;;;;;;6255416;22;20125;-95
2022/05/29 18:14:54;;;;;;;0.10;0.10;;;;;;;;;;6230532;22;20018;-95
2022/05/29 18:17:20;;;;;;;0.10;0.10;;;;;;;;;;6230793;22;20011;-95
2022/05/29 18:19:46;;;;;;;0.10;0.10;;;;;;;;;;6230398;22;20503;-95
2022/05/29 18:22:12;;;;;;;0.10;0.10;;;;;;;;;;6230533;22;20061;-94
2022/05/29 18:24:38;;;;;;;0.10;0.10;;;;;;;;;;6228717;22;20082;-95
2022/05/29 18:27:12;;;;;;;0.10;0.10;;;;;;;;;;6232870;22;20072;-94
2022/05/29 18:29:38;;;;;;;0.10;0.10;;;;;;;;;;6231913;22;20489;-94
2022/05/29 18:32:04;;;;;;;0.10;0.10;;;;;;;;;;6230217;22;20011;-95
2022/05/29 18:34:39;;;;;;;0.10;0.10;;;;;;;;;;6231515;22;20015;-94
2022/05/29 18:37:23;;;;;;;0.20;0.20;;;;;;;;;;6255370;22;20011;-94
2022/05/29 18:39:53;;;;;;;0.10;0.10;;;;;;;;;;6258227;22;20041;-94
2022/05/29 18:42:22;;;;;;;0.10;0.10;;;;;;;;;;6256210;22;20077;-91
2022/05/29 18:44:51;;;;;;;0.10;0.10;;;;;;;;;;6229540;22;20011;-93
2022/05/29 18:47:36;;;;;;;0.10;0.10;;;;;;;;;;6229467;22;20132;-96
2022/05/29 18:50:02;;;;;;;0.10;0.10;;;;;;;;;;6254339;22;20011;-92
2022/05/29 18:52:27;;;;;;;0.10;0.10;;;;;;;;;;6228642;22;20014;-89
2022/05/29 18:54:55;;;;;;;0.10;0.10;;;;;;;;;;6228486;22;20043;-91
2022/05/29 18:57:21;;;;;;;0.10;0.10;;;;;;;;;;6228193;22;20011;-91
2022/05/29 18:59:48;;;;;;;0.10;0.10;;;;;;;;;;6228642;22;20015;-90
2022/05/29 19:02:40;;;;;;;0.10;0.10;;;;;;;;;;6253252;22;20015;-91
2022/05/29 19:05:07;;;;;;;0.10;0.10;;;;;;;;;;6279218;22;20026;-90
2022/05/29 19:07:33;;;;;;;0.10;0.10;;;;;;;;;;6228276;22;20035;-90
2022/05/29 19:09:59;;;;;;;0.10;0.10;;;;;;;;;;6228236;22;20007;-91
2022/05/29 19:12:25;;;;;;;0.10;0.10;;;;;;;;;;6228161;22;20011;-90
2022/05/29 19:14:54;;;;;;;0.10;0.10;;;;;;;;;;6229921;22;20371;-90
2022/05/29 19:20:05;;;;;;;0.10;0.10;;;;;;;;;;6257305;22;20019;-91
2022/05/29 19:22:32;;;;;;;0.10;0.10;;;;;;;;;;6228324;22;20037;-91
2022/05/29 19:25:02;;;;;;;0.10;0.10;;;;;;;;;;6254179;22;20090;-94
2022/05/29 19:27:31;;;;;;;0.10;0.10;;;;;;;;;;6229829;22;20389;-96
2022/05/29 19:29:58;;;;;;;0.10;0.10;;;;;;;;;;6229108;22;20011;-94
2022/05/29 19:32:39;;;;;;;0.10;0.10;;;;;;;;;;6229784;22;20420;-93
2022/05/29 19:35:11;;;;;;;0.10;0.10;;;;;;;;;;6279178;22;20018;-92
2022/05/29 19:37:39;;;;;;;0.10;0.10;;;;;;;;;;6228753;22;20176;-92
2022/05/29 19:40:11;;;;;;;0.10;0.10;;;;;;;;;;6253232;22;20022;-94
2022/05/29 19:42:37;;;;;;;0.10;0.10;;;;;;;;;;6229154;22;20089;-95
2022/05/29 19:45:06;;;;;;;0.10;0.10;;;;;;;;;;6227457;22;20290;-96
2022/05/29 19:47:35;;;;;;;0.10;0.10;;;;;;;;;;6229679;22;20064;-94
2022/05/29 19:50:06;;;;;;;0.10;0.10;;;;;;;;;;6235358;22;20017;-96
2022/05/29 19:53:01;;;;;;;0.10;0.10;;;;;;;;;;6273341;22;20421;-95
2022/05/29 20:25:29;;;;;;;0.20;0.20;;;;;;;;;;5715616;22;11801819;-96
2022/05/29 20:28:02;;;;;;;0.10;0.10;;;;;;;;;;6162697;23;20021;-95
2022/05/29 20:30:29;;;;;;;0.10;0.10;;;;;;;;;;6142946;23;20140;-94
2022/05/29 20:32:56;;;;;;;0.10;0.10;;;;;;;;;;6149599;23;20016;-93
2022/05/29 20:35:42;;;;;;;0.10;0.10;;;;;;;;;;6199394;23;20022;-95
2022/05/29 20:38:23;;;;;;;0.10;0.10;;;;;;;;;;6175427;23;20441;-94